Time;durP1;ratioP1;P1;durP2;ratioP2;P2;SDS_P1;SDS_P2;PMS_P1;PMS_P2;Temp;Humidity;BMP_temperature;BMP_pressure;BME280_temperature;BME280_humidity;BME280_pressure;Samples;Min_cycle;Max_cycle;Signal;HPM_P1;HPM_P2
2023/10/08 00:01:14;;;;;;;;;;;;;;;;;;5008236;28;5009;-54
2023/10/08 00:03:41;;;;;;;;;;;;;;;;;;5023726;28;5090;-55
2023/10/08 00:06:13;;;;;;;;;;;;;;;;;;5008202;28;4613;-53
2023/10/08 00:08:38;;;;;;;;;;;;;;;;;;5003951;28;5059;-54
2023/10/08 00:11:07;;;;;;;;;;;;;;;;;;4998147;28;1450;-55
2023/10/08 00:13:39;;;;;;;;;;;;;;;;;;5008255;28;4954;-55
2023/10/08 00:16:09;;;;;;;;;;;;;;;;;;4996117;28;4601;-56
2023/10/08 00:18:34;;;;;;;;;;;;;;;;;;5013045;28;5336;-55
2023/10/08 00:23:41;;;;;;;;;;;;;;;;;;5006675;28;4971;-55
2023/10/08 00:26:07;;;;;;;;;;;;;;;;;;5007707;28;1906;-53
2023/10/08 00:28:33;;;;;;;;;;;;;;;;;;5009440;28;5254;-54
2023/10/08 00:31:05;;;;;;;;;;;;;;;;;;5009891;28;5147;-53
2023/10/08 00:33:30;;;;;;;;;;;;;;;;;;5002126;28;5052;-55
2023/10/08 00:35:56;;;;;;;;;;;;;;;;;;5007155;28;5166;-57
2023/10/08 00:38:21;;;;;;;;;;;;;;;;;;5009130;28;5050;-55
2023/10/08 00:40:48;;;;;;;;;;;;;;;;;;5008964;28;1563;-56
2023/10/08 00:43:30;;;;;;;;;;;;;;;;;;5007718;28;5044;-53
2023/10/08 00:45:58;;;;;;;;;;;;;;;;;;5008098;28;4978;-54
2023/10/08 00:48:28;;;;;;;;;;;;;;;;;;5021750;28;5145;-55
2023/10/08 00:51:08;;;;;;;;;;;;;;;;;;5005989;28;4959;-53
2023/10/08 00:53:38;;;;;;;;;;;;;;;;;;5008242;28;5521;-56
2023/10/08 00:56:12;;;;;;;;;;;;;;;;;;5003262;28;1425;-55
2023/10/08 00:58:38;;;;;;;;;;;;;;;;;;5001347;28;5270;-55
2023/10/08 01:01:04;;;;;;;;;;;;;;;;;;5002868;28;5181;-55
2023/10/08 01:03:35;;;;;;;;;;;;;;;;;;5006706;28;5090;-56
2023/10/08 01:06:02;;;;;;;;;;;;;;;;;;5007927;28;4646;-54
2023/10/08 01:08:37;;;;;;;;;;;;;;;;;;5003819;28;5316;-53
2023/10/08 01:11:26;;;;;;;;;;;;;;;;;;5001907;28;1479;-56
2023/10/08 01:13:54;;;;;;;;;;;;;;;;;;5008627;28;5099;-55
2023/10/08 01:16:20;;;;;;;;;;;;;;;;;;5008152;28;5160;-55
2023/10/08 01:18:50;;;;;;;;;;;;;;;;;;5009621;28;4995;-54
2023/10/08 01:21:30;;;;;;;;;;;;;;;;;;5011228;28;4730;-55
2023/10/08 01:23:56;;;;;;;;;;;;;;;;;;5001437;28;5138;-55
2023/10/08 01:26:22;;;;;;;;;;;;;;;;;;5007715;28;4460;-56
2023/10/08 01:28:48;;;;;;;;;;;;;;;;;;4991399;28;1451;-56
2023/10/08 01:31:15;;;;;;;;;;;;;;;;;;5006826;28;4883;-56
2023/10/08 01:33:50;;;;;;;;;;;;;;;;;;4997326;28;4993;-55
2023/10/08 01:36:15;;;;;;;;;;;;;;;;;;5008263;28;5311;-56
2023/10/08 01:38:48;;;;;;;;;;;;;;;;;;5007590;28;4958;-55
2023/10/08 01:41:19;;;;;;;;;;;;;;;;;;5004279;28;1388;-55
2023/10/08 01:43:48;;;;;;;;;;;;;;;;;;5002697;28;5041;-53
2023/10/08 01:46:15;;;;;;;;;;;;;;;;;;4999066;28;5276;-57
2023/10/08 01:48:43;;;;;;;;;;;;;;;;;;5009846;28;4944;-55
2023/10/08 01:51:24;;;;;;;;;;;;;;;;;;4989974;28;5034;-55
2023/10/08 01:53:50;;;;;;;;;;;;;;;;;;5007330;28;5064;-54
2023/10/08 01:56:15;;;;;;;;;;;;;;;;;;5007877;28;4998;-55
2023/10/08 01:58:40;;;;;;;;;;;;;;;;;;5009600;28;1268;-56
2023/10/08 02:01:12;;;;;;;;;;;;;;;;;;5044033;27;4737;-53
2023/10/08 02:03:37;;;;;;;;;;;;;;;;;;5022916;28;4481;-55
2023/10/08 02:06:05;;;;;;;;;;;;;;;;;;5029697;28;4452;-56
2023/10/08 02:08:31;;;;;;;;;;;;;;;;;;5038448;28;5532;-53
2023/10/08 02:10:57;;;;;;;;;;;;;;;;;;5021595;28;1476;-54
2023/10/08 02:13:22;;;;;;;;;;;;;;;;;;5026282;28;4502;-53
2023/10/08 02:15:53;;;;;;;;;;;;;;;;;;5023717;28;5151;-55
2023/10/08 02:18:18;;;;;;;;;;;;;;;;;;5021511;28;5309;-56
2023/10/08 02:20:44;;;;;;;;;;;;;;;;;;5027494;28;4968;-56
2023/10/08 02:23:11;;;;;;;;;;;;;;;;;;5030370;28;1262;-54
2023/10/08 02:25:38;;;;;;;;;;;;;;;;;;5027745;28;4799;-53
2023/10/08 02:28:03;;;;;;;;;;;;;;;;;;5029641;28;5122;-56
2023/10/08 02:30:29;;;;;;;;;;;;;;;;;;5020573;28;5013;-55
2023/10/08 02:32:54;;;;;;;;;;;;;;;;;;5021694;28;5160;-56
2023/10/08 02:35:19;;;;;;;;;;;;;;;;;;5018702;28;5269;-55
2023/10/08 02:37:45;;;;;;;;;;;;;;;;;;5024402;28;1651;-54
2023/10/08 02:40:25;;;;;;;;;;;;;;;;;;5022261;28;5966;-54
2023/10/08 02:42:50;;;;;;;;;;;;;;;;;;5015966;28;5007;-54
2023/10/08 02:45:16;;;;;;;;;;;;;;;;;;5024691;28;5125;-55
2023/10/08 02:47:45;;;;;;;;;;;;;;;;;;5028350;28;5168;-55
2023/10/08 02:50:11;;;;;;;;;;;;;;;;;;5027834;28;1534;-56
2023/10/08 02:52:36;;;;;;;;;;;;;;;;;;5030753;28;5010;-55
2023/10/08 02:55:01;;;;;;;;;;;;;;;;;;5027389;28;5514;-53
2023/10/08 02:57:29;;;;;;;;;;;;;;;;;;5017979;28;5101;-55
2023/10/08 02:59:54;;;;;;;;;;;;;;;;;;5025862;28;5086;-56
2023/10/08 03:02:21;;;;;;;;;;;;;;;;;;5031071;28;4472;-56
2023/10/08 03:04:46;;;;;;;;;;;;;;;;;;5030194;28;1263;-54
2023/10/08 03:07:21;;;;;;;;;;;;;;;;;;5021878;28;5064;-52
2023/10/08 03:09:50;;;;;;;;;;;;;;;;;;5017782;28;4446;-56
2023/10/08 03:12:17;;;;;;;;;;;;;;;;;;4999783;28;5225;-54
2023/10/08 03:14:49;;;;;;;;;;;;;;;;;;5006869;28;4725;-54
2023/10/08 03:17:19;;;;;;;;;;;;;;;;;;5007652;28;5116;-54
2023/10/08 03:19:45;;;;;;;;;;;;;;;;;;5021432;28;1969;-56
2023/10/08 03:22:10;;;;;;;;;;;;;;;;;;5011615;28;5094;-57
2023/10/08 03:27:15;;;;;;;;;;;;;;;;;;5002507;28;5182;-56
2023/10/08 03:29:41;;;;;;;;;;;;;;;;;;5013469;28;5092;-56
2023/10/08 03:32:13;;;;;;;;;;;;;;;;;;5011024;28;1164;-55
2023/10/08 03:34:43;;;;;;;;;;;;;;;;;;5011977;28;5186;-55
2023/10/08 03:37:08;;;;;;;;;;;;;;;;;;5009215;28;4995;-55
2023/10/08 03:39:52;;;;;;;;;;;;;;;;;;4999725;28;5631;-56
2023/10/08 03:42:24;;;;;;;;;;;;;;;;;;5015403;28;4684;-54
2023/10/08 03:44:51;;;;;;;;;;;;;;;;;;5018133;28;5186;-55
2023/10/08 03:47:18;;;;;;;;;;;;;;;;;;5011044;28;5055;-55
2023/10/08 03:49:45;;;;;;;;;;;;;;;;;;5015642;28;1070;-55
2023/10/08 03:52:10;;;;;;;;;;;;;;;;;;5012374;28;5021;-57
2023/10/08 03:54:42;;;;;;;;;;;;;;;;;;5002380;28;6150;-55
2023/10/08 03:57:14;;;;;;;;;;;;;;;;;;5004270;28;4477;-53
2023/10/08 03:59:41;;;;;;;;;;;;;;;;;;5002788;28;5030;-55
2023/10/08 04:07:25;;;;;;;;;;;;;;;;;;4984890;28;5028;-53
2023/10/08 04:09:55;;;;;;;;;;;;;;;;;;4974363;28;4529;-56
2023/10/08 04:12:26;;;;;;;;;;;;;;;;;;5008823;28;4511;-55
2023/10/08 04:14:55;;;;;;;;;;;;;;;;;;5026240;28;5129;-56
2023/10/08 04:17:22;;;;;;;;;;;;;;;;;;5024820;28;5040;-56
2023/10/08 04:19:47;;;;;;;;;;;;;;;;;;5025578;28;1922;-55
2023/10/08 04:22:15;;;;;;;;;;;;;;;;;;5025906;28;5294;-55
2023/10/08 04:24:43;;;;;;;;;;;;;;;;;;5022262;28;4504;-56
2023/10/08 04:27:09;;;;;;;;;;;;;;;;;;5025941;28;5058;-56
2023/10/08 04:29:36;;;;;;;;;;;;;;;;;;5028788;28;5310;-56
2023/10/08 04:32:07;;;;;;;;;;;;;;;;;;5007634;28;1438;-54
2023/10/08 04:34:33;;;;;;;;;;;;;;;;;;5024564;28;5093;-56
2023/10/08 04:37:00;;;;;;;;;;;;;;;;;;5021072;28;4633;-52
2023/10/08 04:39:31;;;;;;;;;;;;;;;;;;5026103;28;4680;-55
2023/10/08 04:41:59;;;;;;;;;;;;;;;;;;5027857;28;5032;-56
2023/10/08 04:44:25;;;;;;;;;;;;;;;;;;5031877;28;5005;-53
2023/10/08 04:46:53;;;;;;;;;;;;;;;;;;5030626;28;1466;-55
2023/10/08 04:49:28;;;;;;;;;;;;;;;;;;5023557;28;4959;-57
2023/10/08 04:52:00;;;;;;;;;;;;;;;;;;5026176;28;5002;-55
2023/10/08 04:54:29;;;;;;;;;;;;;;;;;;5029273;28;4523;-56
2023/10/08 04:56:57;;;;;;;;;;;;;;;;;;5019489;28;5055;-54
2023/10/08 04:59:23;;;;;;;;;;;;;;;;;;5024791;28;5283;-54
2023/10/08 05:02:02;;;;;;;;;;;;;;;;;;5018468;28;1815;-56
2023/10/08 05:04:32;;;;;;;;;;;;;;;;;;5023430;28;5119;-56
2023/10/08 05:07:54;;;;;;;;;;;;;;;;;;5015075;28;5166;-56
2023/10/08 05:09:52;;;;;;;;;;;;;;;;;;5013778;28;4662;-55
2023/10/08 05:28:26;;;;;;;;;;;;;;;;;;5026014;28;5105;-56
2023/10/08 05:41:52;;;;;;;;;;;;;;;;;;5023788;28;4493;-56
2023/10/08 05:49:38;;;;;;;;;;;;;;;;;;5030590;28;4533;-53
2023/10/08 06:03:09;;;;;;;;;;;;;;;;;;5025399;28;4915;-52
2023/10/08 06:05:22;;;;;;;;;;;;;;;;;;5016415;28;1470;-53
2023/10/08 06:07:56;;;;;;;;;;;;;;;;;;5008317;28;4559;-56
2023/10/08 06:18:25;;;;;;;;;;;;;;;;;;5004059;28;5311;-49
2023/10/08 06:21:01;;;;;;;;;;;;;;;;;;5009217;28;4765;-69
2023/10/08 06:23:35;;;;;;;;;;;;;;;;;;4997904;28;5115;-75
2023/10/08 06:26:05;;;;;;;;;;;;;;;;;;4989354;28;4567;-59
2023/10/08 06:28:31;;;;;;;;;;;;;;;;;;5002840;28;5066;-59
2023/10/08 06:30:56;;;;;;;;;;;;;;;;;;5017344;28;5084;-60
2023/10/08 06:33:30;;;;;;;;;;;;;;;;;;5020043;28;4891;-55
2023/10/08 06:36:02;;;;;;;;;;;;;;;;;;5014362;28;5076;-57
2023/10/08 06:38:30;;;;;;;;;;;;;;;;;;5020653;28;5014;-61
2023/10/08 06:40:59;;;;;;;;;;;;;;;;;;5016755;28;1971;-59
2023/10/08 06:43:25;;;;;;;;;;;;;;;;;;5014516;28;5102;-56
2023/10/08 06:45:54;;;;;;;;;;;;;;;;;;5024500;28;4480;-55
2023/10/08 06:48:21;;;;;;;;;;;;;;;;;;5029413;28;4437;-56
2023/10/08 06:50:46;;;;;;;;;;;;;;;;;;5028641;28;4708;-57
2023/10/08 06:53:13;;;;;;;;;;;;;;;;;;5025608;28;1156;-58
2023/10/08 06:55:40;;;;;;;;;;;;;;;;;;5022579;28;5143;-56
2023/10/08 06:58:05;;;;;;;;;;;;;;;;;;5030503;28;5034;-57
2023/10/08 07:00:40;;;;;;;;;;;;;;;;;;5011094;28;5127;-57
2023/10/08 07:03:10;;;;;;;;;;;;;;;;;;5016083;28;4497;-70
2023/10/08 07:05:40;;;;;;;;;;;;;;;;;;5009553;28;4909;-53
2023/10/08 07:08:12;;;;;;;;;;;;;;;;;;5006982;28;1471;-51
2023/10/08 07:10:38;;;;;;;;;;;;;;;;;;5014295;28;4715;-49
2023/10/08 07:13:03;;;;;;;;;;;;;;;;;;5016239;28;4512;-49
2023/10/08 07:15:30;;;;;;;;;;;;;;;;;;5021840;28;5007;-52
2023/10/08 07:17:55;;;;;;;;;;;;;;;;;;5027958;28;5056;-52
2023/10/08 07:20:22;;;;;;;;;;;;;;;;;;5023639;28;4638;-52
2023/10/08 07:22:53;;;;;;;;;;;;;;;;;;5021071;28;1098;-53
2023/10/08 07:25:21;;;;;;;;;;;;;;;;;;5017970;28;4446;-58
2023/10/08 07:27:47;;;;;;;;;;;;;;;;;;5033338;28;5108;-59
2023/10/08 07:30:13;;;;;;;;;;;;;;;;;;5014163;28;4459;-58
2023/10/08 07:32:40;;;;;;;;;;;;;;;;;;5022784;28;5093;-68
2023/10/08 07:35:29;;;;;;;;;;;;;;;;;;5035915;28;1424;-67
2023/10/08 07:37:54;;;;;;;;;;;;;;;;;;5016991;28;5034;-69
2023/10/08 07:40:20;;;;;;;;;;;;;;;;;;5026800;28;4859;-65
2023/10/08 07:42:51;;;;;;;;;;;;;;;;;;5028846;28;5124;-53
2023/10/08 07:45:17;;;;;;;;;;;;;;;;;;5023304;28;5048;-60
2023/10/08 07:47:43;;;;;;;;;;;;;;;;;;5019162;28;5132;-60
2023/10/08 07:50:11;;;;;;;;;;;;;;;;;;5028557;28;1249;-55
2023/10/08 07:52:36;;;;;;;;;;;;;;;;;;5024099;28;5112;-61
2023/10/08 07:55:04;;;;;;;;;;;;;;;;;;5033129;28;5108;-60
2023/10/08 07:57:30;;;;;;;;;;;;;;;;;;5011364;28;5392;-60
2023/10/08 08:00:01;;;;;;;;;;;;;;;;;;5037621;28;5141;-59
2023/10/08 08:02:27;;;;;;;;;;;;;;;;;;5029212;28;4484;-61
2023/10/08 08:04:52;;;;;;;;;;;;;;;;;;5016052;28;1106;-60
2023/10/08 08:07:18;;;;;;;;;;;;;;;;;;5020197;28;5049;-56
2023/10/08 08:09:59;;;;;;;;;;;;;;;;;;5017922;28;5057;-62
2023/10/08 08:12:32;;;;;;;;;;;;;;;;;;5007039;28;5016;-65
2023/10/08 08:14:57;;;;;;;;;;;;;;;;;;5021966;28;4974;-51
2023/10/08 08:17:23;;;;;;;;;;;;;;;;;;5013567;28;5163;-52
2023/10/08 08:19:49;;;;;;;;;;;;;;;;;;5037471;28;2382;-53
2023/10/08 08:22:21;;;;;;;;;;;;;;;;;;5013623;28;4528;-70
2023/10/08 08:24:53;;;;;;;;;;;;;;;;;;5015450;28;4522;-67
2023/10/08 08:27:24;;;;;;;;;;;;;;;;;;5026978;28;5068;-66
2023/10/08 08:29:55;;;;;;;;;;;;;;;;;;5017789;28;4896;-62
2023/10/08 08:32:21;;;;;;;;;;;;;;;;;;5019512;28;4798;-62
2023/10/08 08:34:50;;;;;;;;;;;;;;;;;;5020149;28;3433;-61
2023/10/08 08:37:15;;;;;;;;;;;;;;;;;;5013342;28;4578;-60
2023/10/08 08:39:41;;;;;;;;;;;;;;;;;;5004901;28;4659;-59
2023/10/08 08:42:07;;;;;;;;;;;;;;;;;;5016589;28;5139;-56
2023/10/08 08:44:34;;;;;;;;;;;;;;;;;;5021383;28;5214;-60
2023/10/08 08:47:04;;;;;;;;;;;;;;;;;;5026277;28;1133;-55
2023/10/08 08:49:29;;;;;;;;;;;;;;;;;;5013406;28;5323;-64
2023/10/08 08:51:55;;;;;;;;;;;;;;;;;;5022577;28;5328;-56
2023/10/08 08:54:21;;;;;;;;;;;;;;;;;;5019037;28;4994;-55
2023/10/08 08:56:46;;;;;;;;;;;;;;;;;;5013415;28;4489;-57
2023/10/08 08:59:11;;;;;;;;;;;;;;;;;;5018291;28;3193;-69
2023/10/08 09:01:40;;;;;;;;;;;;;;;;;;5023064;28;5019;-72
2023/10/08 09:04:05;;;;;;;;;;;;;;;;;;5015778;28;4437;-60
2023/10/08 09:06:34;;;;;;;;;;;;;;;;;;5010349;28;4436;-60
2023/10/08 09:09:25;;;;;;;;;;;;;;;;;;5021379;28;5206;-59
2023/10/08 09:11:51;;;;;;;;;;;;;;;;;;5011183;28;5388;-61
2023/10/08 09:14:17;;;;;;;;;;;;;;;;;;5031098;28;4589;-62
2023/10/08 09:16:43;;;;;;;;;;;;;;;;;;5015516;28;5046;-64
2023/10/08 09:19:12;;;;;;;;;;;;;;;;;;4998114;28;5046;-58
2023/10/08 09:21:37;;;;;;;;;;;;;;;;;;5013675;28;5492;-65
2023/10/08 09:24:03;;;;;;;;;;;;;;;;;;5012842;28;5219;-64
2023/10/08 09:26:29;;;;;;;;;;;;;;;;;;5019105;28;5049;-64
2023/10/08 09:28:55;;;;;;;;;;;;;;;;;;5021503;28;3371;-63
2023/10/08 09:31:23;;;;;;;;;;;;;;;;;;5006805;28;4635;-63
2023/10/08 09:33:55;;;;;;;;;;;;;;;;;;5012591;28;5035;-63
2023/10/08 09:36:20;;;;;;;;;;;;;;;;;;5012681;28;5143;-65
2023/10/08 09:38:48;;;;;;;;;;;;;;;;;;5014250;28;5457;-66
2023/10/08 09:41:13;;;;;;;;;;;;;;;;;;5001249;28;3467;-67
2023/10/08 09:43:39;;;;;;;;;;;;;;;;;;5008928;28;4925;-62
2023/10/08 09:46:08;;;;;;;;;;;;;;;;;;4995720;28;4958;-60
2023/10/08 09:48:36;;;;;;;;;;;;;;;;;;5022143;28;4650;-64
2023/10/08 09:51:06;;;;;;;;;;;;;;;;;;5040674;28;5153;-61
2023/10/08 09:53:44;;;;;;;;;;;;;;;;;;5040673;28;6077;-60
2023/10/08 09:56:14;;;;;;;;;;;;;;;;;;5013330;28;3421;-61
2023/10/08 09:58:39;;;;;;;;;;;;;;;;;;5018383;28;4906;-59
2023/10/08 10:01:05;;;;;;;;;;;;;;;;;;5020962;28;5041;-58
2023/10/08 10:03:30;;;;;;;;;;;;;;;;;;5027218;28;5162;-60
2023/10/08 10:05:59;;;;;;;;;;;;;;;;;;5011529;28;5102;-60
2023/10/08 10:08:26;;;;;;;;;;;;;;;;;;5029736;28;4901;-60
2023/10/08 10:10:57;;;;;;;;;;;;;;;;;;5015386;28;2959;-55
2023/10/08 10:13:23;;;;;;;;;;;;;;;;;;5025075;28;5472;-56
2023/10/08 10:15:48;;;;;;;;;;;;;;;;;;5012415;28;4653;-56
2023/10/08 10:18:28;;;;;;;;;;;;;;;;;;5025560;28;4973;-56
2023/10/08 10:21:00;;;;;;;;;;;;;;;;;;5015926;28;5136;-57
2023/10/08 10:23:36;;;;;;;;;;;;;;;;;;5001118;28;4983;-61
2023/10/08 10:26:02;;;;;;;;;;;;;;;;;;5022681;28;3381;-61
2023/10/08 10:28:29;;;;;;;;;;;;;;;;;;5023650;28;5017;-61
2023/10/08 10:30:55;;;;;;;;;;;;;;;;;;5021718;28;4985;-55
2023/10/08 10:33:21;;;;;;;;;;;;;;;;;;5035397;28;4992;-56
2023/10/08 10:35:50;;;;;;;;;;;;;;;;;;5031956;28;5140;-56
2023/10/08 10:38:18;;;;;;;;;;;;;;;;;;5027404;28;5946;-55
2023/10/08 10:40:45;;;;;;;;;;;;;;;;;;5026529;28;1910;-55
2023/10/08 10:43:15;;;;;;;;;;;;;;;;;;5038284;28;4497;-55
2023/10/08 10:45:42;;;;;;;;;;;;;;;;;;5040523;28;4538;-55
2023/10/08 10:48:12;;;;;;;;;;;;;;;;;;5034107;28;4983;-55
2023/10/08 10:50:48;;;;;;;;;;;;;;;;;;5023709;28;5069;-55
2023/10/08 10:53:14;;;;;;;;;;;;;;;;;;5031830;28;1535;-56
2023/10/08 10:55:47;;;;;;;;;;;;;;;;;;5011881;28;5794;-55
2023/10/08 10:58:15;;;;;;;;;;;;;;;;;;5036074;28;5276;-55
2023/10/08 11:03:23;;;;;;;;;;;;;;;;;;5032102;28;5078;-56
2023/10/08 11:05:51;;;;;;;;;;;;;;;;;;5025940;28;5051;-55
2023/10/08 11:08:18;;;;;;;;;;;;;;;;;;5031753;28;6009;-55
2023/10/08 11:10:49;;;;;;;;;;;;;;;;;;5025660;28;1248;-55
2023/10/08 11:13:14;;;;;;;;;;;;;;;;;;5037353;28;5079;-55
2023/10/08 11:15:40;;;;;;;;;;;;;;;;;;5029919;28;5213;-56
2023/10/08 11:18:12;;;;;;;;;;;;;;;;;;5025029;28;5197;-55
2023/10/08 11:20:39;;;;;;;;;;;;;;;;;;5032121;28;5094;-55
2023/10/08 11:23:21;;;;;;;;;;;;;;;;;;5022428;28;1169;-55
2023/10/08 11:25:53;;;;;;;;;;;;;;;;;;5017262;28;4944;-55
2023/10/08 11:28:19;;;;;;;;;;;;;;;;;;5014760;28;4965;-55
2023/10/08 11:30:46;;;;;;;;;;;;;;;;;;5019060;28;5029;-55
2023/10/08 11:33:15;;;;;;;;;;;;;;;;;;5021488;28;5242;-55
2023/10/08 11:35:54;;;;;;;;;;;;;;;;;;5022852;28;4462;-56
2023/10/08 11:38:22;;;;;;;;;;;;;;;;;;5019802;28;4859;-55
2023/10/08 11:40:56;;;;;;;;;;;;;;;;;;5028385;28;1979;-56
2023/10/08 11:43:21;;;;;;;;;;;;;;;;;;5022988;28;5324;-55
2023/10/08 11:45:49;;;;;;;;;;;;;;;;;;5024704;28;4508;-55
2023/10/08 11:48:21;;;;;;;;;;;;;;;;;;5021152;28;5457;-56
2023/10/08 11:50:47;;;;;;;;;;;;;;;;;;5024327;28;5025;-55
2023/10/08 11:53:12;;;;;;;;;;;;;;;;;;5047906;28;1487;-55
2023/10/08 11:55:42;;;;;;;;;;;;;;;;;;5025900;28;4371;-56
2023/10/08 11:58:10;;;;;;;;;;;;;;;;;;5033271;28;4856;-56
2023/10/08 12:00:45;;;;;;;;;;;;;;;;;;5032289;28;4703;-55
2023/10/08 12:03:11;;;;;;;;;;;;;;;;;;5029831;28;4990;-55
2023/10/08 12:05:38;;;;;;;;;;;;;;;;;;5027032;28;5071;-55
2023/10/08 12:08:08;;;;;;;;;;;;;;;;;;5005634;28;1605;-56
2023/10/08 12:10:34;;;;;;;;;;;;;;;;;;5024949;28;4836;-56
2023/10/08 12:12:59;;;;;;;;;;;;;;;;;;5016204;28;4633;-56
2023/10/08 12:15:34;;;;;;;;;;;;;;;;;;5035517;28;5166;-56
2023/10/08 12:18:08;;;;;;;;;;;;;;;;;;5031654;28;5031;-56
2023/10/08 12:20:43;;;;;;;;;;;;;;;;;;5015184;28;4680;-56
2023/10/08 12:23:10;;;;;;;;;;;;;;;;;;5033614;28;1113;-56
2023/10/08 12:25:37;;;;;;;;;;;;;;;;;;5038857;28;5956;-56
2023/10/08 12:28:03;;;;;;;;;;;;;;;;;;5030011;28;4860;-56
2023/10/08 12:30:30;;;;;;;;;;;;;;;;;;5034780;28;5082;-56
2023/10/08 12:32:59;;;;;;;;;;;;;;;;;;5025118;28;5056;-56
2023/10/08 12:35:25;;;;;;;;;;;;;;;;;;5033254;28;4995;-55
2023/10/08 12:37:51;;;;;;;;;;;;;;;;;;5030077;28;1616;-56
2023/10/08 12:40:22;;;;;;;;;;;;;;;;;;5028513;28;4487;-55
2023/10/08 12:42:51;;;;;;;;;;;;;;;;;;5033699;28;5146;-56
2023/10/08 12:45:20;;;;;;;;;;;;;;;;;;5031461;28;5205;-56
2023/10/08 12:47:54;;;;;;;;;;;;;;;;;;5029189;28;5057;-56
2023/10/08 12:51:06;;;;;;;;;;;;;;;;;;5039792;28;4645;-56
2023/10/08 12:53:05;;;;;;;;;;;;;;;;;;5009635;28;1664;-56
2023/10/08 12:55:31;;;;;;;;;;;;;;;;;;5019113;28;4717;-57
2023/10/08 12:58:05;;;;;;;;;;;;;;;;;;5020781;28;4982;-56
2023/10/08 13:00:31;;;;;;;;;;;;;;;;;;5023836;28;5144;-56
2023/10/08 13:02:57;;;;;;;;;;;;;;;;;;5037262;28;5095;-56
2023/10/08 13:05:29;;;;;;;;;;;;;;;;;;5020593;28;5052;-56
2023/10/08 13:07:55;;;;;;;;;;;;;;;;;;5020252;28;1148;-55
2023/10/08 13:10:21;;;;;;;;;;;;;;;;;;5021120;28;4663;-56
2023/10/08 13:12:47;;;;;;;;;;;;;;;;;;5016457;28;5035;-55
2023/10/08 13:15:12;;;;;;;;;;;;;;;;;;5021199;28;4888;-56
2023/10/08 13:17:37;;;;;;;;;;;;;;;;;;5024383;28;5223;-56
2023/10/08 13:20:03;;;;;;;;;;;;;;;;;;5028346;28;1918;-56
2023/10/08 13:22:28;;;;;;;;;;;;;;;;;;5022164;28;4773;-55
2023/10/08 13:24:53;;;;;;;;;;;;;;;;;;5042825;28;5080;-55
2023/10/08 13:27:19;;;;;;;;;;;;;;;;;;5036480;28;4449;-56
2023/10/08 13:29:44;;;;;;;;;;;;;;;;;;5021782;28;5115;-56
2023/10/08 13:32:17;;;;;;;;;;;;;;;;;;5036801;28;1112;-56
2023/10/08 13:34:42;;;;;;;;;;;;;;;;;;5032167;28;5257;-56
2023/10/08 13:37:07;;;;;;;;;;;;;;;;;;5030549;28;5144;-56
2023/10/08 13:39:35;;;;;;;;;;;;;;;;;;5034978;28;5053;-56
2023/10/08 13:42:01;;;;;;;;;;;;;;;;;;5024377;28;5012;-56
2023/10/08 13:44:28;;;;;;;;;;;;;;;;;;5021070;28;5086;-56
2023/10/08 13:46:57;;;;;;;;;;;;;;;;;;5032131;28;1155;-55
2023/10/08 13:49:22;;;;;;;;;;;;;;;;;;5032965;28;4408;-56
2023/10/08 13:51:55;;;;;;;;;;;;;;;;;;5024279;28;4547;-56
2023/10/08 13:54:20;;;;;;;;;;;;;;;;;;5029439;28;4778;-56
2023/10/08 13:56:48;;;;;;;;;;;;;;;;;;5029481;28;5214;-56
2023/10/08 13:59:13;;;;;;;;;;;;;;;;;;5011057;28;1150;-56
2023/10/08 14:01:40;;;;;;;;;;;;;;;;;;5036514;28;4967;-56
2023/10/08 14:04:06;;;;;;;;;;;;;;;;;;5022759;28;5053;-56
2023/10/08 14:06:37;;;;;;;;;;;;;;;;;;5031538;28;5176;-56
2023/10/08 14:09:07;;;;;;;;;;;;;;;;;;5029343;28;5201;-56
2023/10/08 14:11:33;;;;;;;;;;;;;;;;;;5015397;28;4953;-56
2023/10/08 14:14:02;;;;;;;;;;;;;;;;;;5033369;28;1157;-56
2023/10/08 14:16:28;;;;;;;;;;;;;;;;;;5029254;28;5107;-56
2023/10/08 14:18:59;;;;;;;;;;;;;;;;;;5014132;28;5074;-55
2023/10/08 14:21:30;;;;;;;;;;;;;;;;;;5020744;28;4735;-56
2023/10/08 14:23:56;;;;;;;;;;;;;;;;;;5033163;28;4536;-56
2023/10/08 14:26:22;;;;;;;;;;;;;;;;;;5038014;28;4940;-56
2023/10/08 14:28:54;;;;;;;;;;;;;;;;;;5033367;28;1267;-56
2023/10/08 14:31:22;;;;;;;;;;;;;;;;;;5019147;28;5037;-56
2023/10/08 14:34:18;;;;;;;;;;;;;;;;;;5014569;28;4432;-55
2023/10/08 14:44:56;;;;;;;;;;;;;;;;;;5023284;28;5138;-58
2023/10/08 14:47:21;;;;;;;;;;;;;;;;;;5032491;28;4882;-58
2023/10/08 14:49:47;;;;;;;;;;;;;;;;;;5031616;28;3486;-58
2023/10/08 14:52:12;;;;;;;;;;;;;;;;;;5030092;28;4459;-58
2023/10/08 14:54:37;;;;;;;;;;;;;;;;;;5013275;28;5182;-58
2023/10/08 14:57:05;;;;;;;;;;;;;;;;;;5030221;28;5053;-58
2023/10/08 14:59:30;;;;;;;;;;;;;;;;;;5026200;28;4647;-58
2023/10/08 15:01:56;;;;;;;;;;;;;;;;;;5022963;28;1314;-58
2023/10/08 15:04:21;;;;;;;;;;;;;;;;;;5020726;28;5120;-54
2023/10/08 15:06:47;;;;;;;;;;;;;;;;;;5024107;28;4928;-54
2023/10/08 15:09:21;;;;;;;;;;;;;;;;;;5016223;28;5021;-56
2023/10/08 15:11:46;;;;;;;;;;;;;;;;;;5028541;28;5256;-56
2023/10/08 15:14:12;;;;;;;;;;;;;;;;;;5031523;28;1075;-56
2023/10/08 15:16:37;;;;;;;;;;;;;;;;;;5030246;28;5044;-56
2023/10/08 15:19:03;;;;;;;;;;;;;;;;;;5034345;28;5077;-56
2023/10/08 15:21:33;;;;;;;;;;;;;;;;;;5022270;28;5309;-57
2023/10/08 15:24:01;;;;;;;;;;;;;;;;;;5024493;28;5043;-57
2023/10/08 15:26:30;;;;;;;;;;;;;;;;;;5016741;28;5231;-58
2023/10/08 15:28:55;;;;;;;;;;;;;;;;;;5028175;28;3275;-58
2023/10/08 15:31:20;;;;;;;;;;;;;;;;;;5022395;28;5116;-57
2023/10/08 15:33:46;;;;;;;;;;;;;;;;;;5028030;28;5106;-57
2023/10/08 15:36:11;;;;;;;;;;;;;;;;;;5026454;28;4933;-58
2023/10/08 15:38:36;;;;;;;;;;;;;;;;;;5021373;28;5182;-59
2023/10/08 15:41:02;;;;;;;;;;;;;;;;;;5024870;28;3327;-56
2023/10/08 15:43:27;;;;;;;;;;;;;;;;;;5008657;28;4979;-60
2023/10/08 15:45:52;;;;;;;;;;;;;;;;;;5022101;28;4643;-60
2023/10/08 15:48:19;;;;;;;;;;;;;;;;;;5025323;28;5132;-63
2023/10/08 15:50:44;;;;;;;;;;;;;;;;;;5031276;28;5057;-63
2023/10/08 15:53:10;;;;;;;;;;;;;;;;;;5023883;28;1445;-63
2023/10/08 15:55:35;;;;;;;;;;;;;;;;;;5019062;28;4741;-63
2023/10/08 15:58:00;;;;;;;;;;;;;;;;;;5036357;28;5127;-63
2023/10/08 16:00:27;;;;;;;;;;;;;;;;;;5036423;28;5062;-63
2023/10/08 16:02:52;;;;;;;;;;;;;;;;;;5031908;28;4982;-63
2023/10/08 16:05:17;;;;;;;;;;;;;;;;;;5013967;28;4484;-57
2023/10/08 16:07:43;;;;;;;;;;;;;;;;;;5021002;28;3156;-58
2023/10/08 16:10:08;;;;;;;;;;;;;;;;;;5019693;28;4955;-62
2023/10/08 16:12:33;;;;;;;;;;;;;;;;;;5022393;28;5089;-63
2023/10/08 16:14:58;;;;;;;;;;;;;;;;;;5019635;28;5050;-55
2023/10/08 16:17:24;;;;;;;;;;;;;;;;;;5018301;28;5161;-62
2023/10/08 16:19:50;;;;;;;;;;;;;;;;;;5011039;28;3413;-61
2023/10/08 16:22:16;;;;;;;;;;;;;;;;;;5026207;28;5119;-61
2023/10/08 16:24:41;;;;;;;;;;;;;;;;;;5022537;28;5141;-56
2023/10/08 16:27:07;;;;;;;;;;;;;;;;;;5021284;28;5229;-56
2023/10/08 16:29:32;;;;;;;;;;;;;;;;;;5020565;28;4889;-57
2023/10/08 16:31:58;;;;;;;;;;;;;;;;;;5016351;28;3603;-56
2023/10/08 16:34:23;;;;;;;;;;;;;;;;;;5018771;28;4843;-56
2023/10/08 16:36:48;;;;;;;;;;;;;;;;;;5020073;28;5338;-60
2023/10/08 16:39:17;;;;;;;;;;;;;;;;;;5019460;28;4738;-62
2023/10/08 16:41:43;;;;;;;;;;;;;;;;;;5005986;28;5116;-54
2023/10/08 16:44:11;;;;;;;;;;;;;;;;;;5014524;28;3585;-53
2023/10/08 16:46:36;;;;;;;;;;;;;;;;;;5019089;28;5077;-54
2023/10/08 16:49:01;;;;;;;;;;;;;;;;;;4996860;28;4803;-54
2023/10/08 16:51:27;;;;;;;;;;;;;;;;;;5006438;28;5201;-53
2023/10/08 16:53:52;;;;;;;;;;;;;;;;;;5002208;28;4599;-53
2023/10/08 16:56:17;;;;;;;;;;;;;;;;;;5016641;28;4522;-53
2023/10/08 16:58:43;;;;;;;;;;;;;;;;;;5014466;28;3430;-52
2023/10/08 17:01:12;;;;;;;;;;;;;;;;;;5015380;28;5096;-53
2023/10/08 17:03:37;;;;;;;;;;;;;;;;;;5035998;28;4922;-53
2023/10/08 17:06:08;;;;;;;;;;;;;;;;;;5009719;28;5003;-55
2023/10/08 17:08:34;;;;;;;;;;;;;;;;;;5016962;28;4683;-54
2023/10/08 17:10:59;;;;;;;;;;;;;;;;;;5016277;28;3469;-58
2023/10/08 17:13:24;;;;;;;;;;;;;;;;;;5016202;28;5021;-57
2023/10/08 17:15:50;;;;;;;;;;;;;;;;;;5014847;28;5112;-56
2023/10/08 17:18:15;;;;;;;;;;;;;;;;;;5015015;28;5122;-56
2023/10/08 17:20:41;;;;;;;;;;;;;;;;;;5029110;28;5132;-55
2023/10/08 17:23:06;;;;;;;;;;;;;;;;;;5029446;28;3340;-59
2023/10/08 17:25:32;;;;;;;;;;;;;;;;;;5013153;28;4822;-61
2023/10/08 17:27:57;;;;;;;;;;;;;;;;;;5012714;28;5091;-56
2023/10/08 17:30:22;;;;;;;;;;;;;;;;;;5017447;28;5337;-59
2023/10/08 17:32:48;;;;;;;;;;;;;;;;;;5016966;28;4525;-59
2023/10/08 17:35:16;;;;;;;;;;;;;;;;;;5022945;28;3524;-61
2023/10/08 17:37:43;;;;;;;;;;;;;;;;;;5011788;28;5381;-58
2023/10/08 17:40:11;;;;;;;;;;;;;;;;;;5015359;28;5213;-59
2023/10/08 17:42:36;;;;;;;;;;;;;;;;;;5013057;28;5198;-57
2023/10/08 17:45:02;;;;;;;;;;;;;;;;;;5017338;28;5222;-58
2023/10/08 17:47:28;;;;;;;;;;;;;;;;;;5015643;28;4520;-58
2023/10/08 17:49:54;;;;;;;;;;;;;;;;;;5013459;28;3453;-66
2023/10/08 17:52:19;;;;;;;;;;;;;;;;;;5015079;28;5013;-62
2023/10/08 17:54:45;;;;;;;;;;;;;;;;;;5007080;28;5065;-57
2023/10/08 17:57:14;;;;;;;;;;;;;;;;;;5012941;28;5006;-57
2023/10/08 17:59:40;;;;;;;;;;;;;;;;;;5032998;28;5079;-58
2023/10/08 18:02:06;;;;;;;;;;;;;;;;;;5015996;28;3643;-55
2023/10/08 18:04:31;;;;;;;;;;;;;;;;;;5017354;28;4987;-58
2023/10/08 18:06:57;;;;;;;;;;;;;;;;;;5013767;28;5311;-58
2023/10/08 18:09:24;;;;;;;;;;;;;;;;;;5009114;28;4939;-57
2023/10/08 18:11:49;;;;;;;;;;;;;;;;;;4999660;28;4934;-70
2023/10/08 18:14:15;;;;;;;;;;;;;;;;;;5014898;28;3325;-58
2023/10/08 18:16:41;;;;;;;;;;;;;;;;;;5010262;28;5021;-58
2023/10/08 18:19:07;;;;;;;;;;;;;;;;;;5015000;28;5108;-57
2023/10/08 18:21:37;;;;;;;;;;;;;;;;;;5019571;28;5110;-58